sensor_id;sensor_type;location;lat;lon;timestamp;P1;durP1;ratioP1;P2;durP2;ratioP2
70547;SDS011;58099;43.406;3.698;2023-04-12T00:01:03;4.43;;;1.33;;
70547;SDS011;58099;43.406;3.698;2023-04-12T00:03:29;4.93;;;1.40;;
70547;SDS011;58099;43.406;3.698;2023-04-12T00:05:58;6.72;;;1.13;;
70547;SDS011;58099;43.406;3.698;2023-04-12T00:08:27;5.13;;;1.07;;
70547;SDS011;58099;43.406;3.698;2023-04-12T00:10:59;4.88;;;1.17;;
70547;SDS011;58099;43.406;3.698;2023-04-12T00:13:28;5.35;;;1.20;;
70547;SDS011;58099;43.406;3.698;2023-04-12T00:15:54;4.32;;;1.10;;
70547;SDS011;58099;43.406;3.698;2023-04-12T00:18:20;4.80;;;1.33;;
70547;SDS011;58099;43.406;3.698;2023-04-12T00:20:52;4.15;;;1.30;;
70547;SDS011;58099;43.406;3.698;2023-04-12T00:23:19;5.90;;;1.23;;
70547;SDS011;58099;43.406;3.698;2023-04-12T00:25:45;4.97;;;1.50;;
70547;SDS011;58099;43.406;3.698;2023-04-12T00:28:11;5.40;;;1.60;;
70547;SDS011;58099;43.406;3.698;2023-04-12T00:30:36;4.93;;;1.30;;
70547;SDS011;58099;43.406;3.698;2023-04-12T00:33:02;4.57;;;1.10;;
70547;SDS011;58099;43.406;3.698;2023-04-12T00:35:28;4.90;;;1.33;;
70547;SDS011;58099;43.406;3.698;2023-04-12T00:37:54;5.83;;;1.63;;
70547;SDS011;58099;43.406;3.698;2023-04-12T00:40:20;3.58;;;1.35;;
70547;SDS011;58099;43.406;3.698;2023-04-12T00:42:46;5.03;;;1.50;;
70547;SDS011;58099;43.406;3.698;2023-04-12T00:45:12;6.10;;;1.73;;
70547;SDS011;58099;43.406;3.698;2023-04-12T00:47:38;4.82;;;1.63;;
70547;SDS011;58099;43.406;3.698;2023-04-12T00:50:06;5.28;;;1.60;;
70547;SDS011;58099;43.406;3.698;2023-04-12T00:52:33;5.75;;;1.90;;
70547;SDS011;58099;43.406;3.698;2023-04-12T00:55:02;6.30;;;2.00;;
70547;SDS011;58099;43.406;3.698;2023-04-12T00:57:33;5.95;;;2.13;;
70547;SDS011;58099;43.406;3.698;2023-04-12T01:00:03;6.60;;;2.05;;
70547;SDS011;58099;43.406;3.698;2023-04-12T01:02:34;7.40;;;2.40;;
70547;SDS011;58099;43.406;3.698;2023-04-12T01:05:03;4.85;;;1.27;;
70547;SDS011;58099;43.406;3.698;2023-04-12T01:13:27;3.88;;;1.25;;
70547;SDS011;58099;43.406;3.698;2023-04-12T01:16:27;4.10;;;1.08;;
70547;SDS011;58099;43.406;3.698;2023-04-12T01:18:55;4.45;;;1.48;;
70547;SDS011;58099;43.406;3.698;2023-04-12T01:21:41;4.50;;;0.90;;
70547;SDS011;58099;43.406;3.698;2023-04-12T01:26:49;5.80;;;1.25;;
70547;SDS011;58099;43.406;3.698;2023-04-12T01:29:19;4.70;;;0.93;;
70547;SDS011;58099;43.406;3.698;2023-04-12T01:31:52;5.25;;;1.13;;
70547;SDS011;58099;43.406;3.698;2023-04-12T01:34:22;4.33;;;1.30;;
70547;SDS011;58099;43.406;3.698;2023-04-12T01:36:49;5.93;;;1.30;;
70547;SDS011;58099;43.406;3.698;2023-04-12T01:39:16;5.57;;;1.25;;
70547;SDS011;58099;43.406;3.698;2023-04-12T01:41:42;7.38;;;1.30;;
70547;SDS011;58099;43.406;3.698;2023-04-12T01:44:13;5.60;;;1.42;;
70547;SDS011;58099;43.406;3.698;2023-04-12T01:46:39;6.17;;;1.60;;
70547;SDS011;58099;43.406;3.698;2023-04-12T01:49:06;4.05;;;1.20;;
70547;SDS011;58099;43.406;3.698;2023-04-12T01:54:18;4.10;;;1.23;;
70547;SDS011;58099;43.406;3.698;2023-04-12T01:57:01;5.80;;;1.40;;
70547;SDS011;58099;43.406;3.698;2023-04-12T01:59:37;4.85;;;1.42;;
70547;SDS011;58099;43.406;3.698;2023-04-12T02:02:04;6.90;;;1.45;;
70547;SDS011;58099;43.406;3.698;2023-04-12T02:04:32;4.22;;;1.35;;
70547;SDS011;58099;43.406;3.698;2023-04-12T02:06:58;5.07;;;1.50;;
70547;SDS011;58099;43.406;3.698;2023-04-12T02:09:24;6.50;;;1.40;;
70547;SDS011;58099;43.406;3.698;2023-04-12T02:11:50;6.15;;;1.60;;
70547;SDS011;58099;43.406;3.698;2023-04-12T02:14:15;7.20;;;1.43;;
70547;SDS011;58099;43.406;3.698;2023-04-12T02:16:41;6.35;;;1.55;;
70547;SDS011;58099;43.406;3.698;2023-04-12T02:19:08;5.85;;;1.65;;
70547;SDS011;58099;43.406;3.698;2023-04-12T02:21:38;4.77;;;1.50;;
70547;SDS011;58099;43.406;3.698;2023-04-12T02:24:08;5.60;;;1.40;;
70547;SDS011;58099;43.406;3.698;2023-04-12T02:26:35;4.63;;;1.42;;
70547;SDS011;58099;43.406;3.698;2023-04-12T02:29:02;6.47;;;1.50;;
70547;SDS011;58099;43.406;3.698;2023-04-12T02:31:31;5.28;;;1.60;;
70547;SDS011;58099;43.406;3.698;2023-04-12T02:33:58;5.27;;;1.30;;
70547;SDS011;58099;43.406;3.698;2023-04-12T02:36:23;6.57;;;1.55;;
70547;SDS011;58099;43.406;3.698;2023-04-12T02:38:49;5.13;;;1.40;;
70547;SDS011;58099;43.406;3.698;2023-04-12T02:41:16;5.22;;;1.10;;
70547;SDS011;58099;43.406;3.698;2023-04-12T02:43:42;5.38;;;1.20;;
70547;SDS011;58099;43.406;3.698;2023-04-12T02:46:08;4.53;;;1.30;;
70547;SDS011;58099;43.406;3.698;2023-04-12T02:48:34;6.35;;;1.92;;
70547;SDS011;58099;43.406;3.698;2023-04-12T02:50:59;5.67;;;1.73;;
70547;SDS011;58099;43.406;3.698;2023-04-12T02:53:25;3.90;;;1.35;;
70547;SDS011;58099;43.406;3.698;2023-04-12T02:55:51;5.35;;;1.60;;
70547;SDS011;58099;43.406;3.698;2023-04-12T02:58:16;6.27;;;1.20;;
70547;SDS011;58099;43.406;3.698;2023-04-12T03:00:43;6.90;;;1.65;;
70547;SDS011;58099;43.406;3.698;2023-04-12T03:03:09;3.88;;;1.30;;
70547;SDS011;58099;43.406;3.698;2023-04-12T03:05:35;6.20;;;1.40;;
70547;SDS011;58099;43.406;3.698;2023-04-12T03:08:02;5.80;;;1.10;;
70547;SDS011;58099;43.406;3.698;2023-04-12T03:10:27;6.88;;;1.35;;
70547;SDS011;58099;43.406;3.698;2023-04-12T03:12:53;5.33;;;1.50;;
70547;SDS011;58099;43.406;3.698;2023-04-12T03:15:19;5.93;;;1.60;;
70547;SDS011;58099;43.406;3.698;2023-04-12T03:17:47;5.03;;;1.30;;
70547;SDS011;58099;43.406;3.698;2023-04-12T03:20:13;5.32;;;1.58;;
70547;SDS011;58099;43.406;3.698;2023-04-12T03:22:38;6.10;;;1.50;;
70547;SDS011;58099;43.406;3.698;2023-04-12T03:25:04;5.90;;;1.38;;
70547;SDS011;58099;43.406;3.698;2023-04-12T03:27:30;7.45;;;1.65;;
70547;SDS011;58099;43.406;3.698;2023-04-12T03:29:56;3.97;;;1.20;;
70547;SDS011;58099;43.406;3.698;2023-04-12T03:32:22;4.88;;;1.30;;
70547;SDS011;58099;43.406;3.698;2023-04-12T03:34:48;6.03;;;1.40;;
70547;SDS011;58099;43.406;3.698;2023-04-12T03:37:15;6.30;;;1.10;;
70547;SDS011;58099;43.406;3.698;2023-04-12T03:39:40;5.60;;;1.25;;
70547;SDS011;58099;43.406;3.698;2023-04-12T03:42:08;4.85;;;1.10;;
70547;SDS011;58099;43.406;3.698;2023-04-12T03:44:34;5.60;;;1.37;;
70547;SDS011;58099;43.406;3.698;2023-04-12T03:47:00;5.15;;;1.45;;
70547;SDS011;58099;43.406;3.698;2023-04-12T03:49:26;5.03;;;1.40;;
70547;SDS011;58099;43.406;3.698;2023-04-12T03:51:51;5.18;;;1.40;;
70547;SDS011;58099;43.406;3.698;2023-04-12T03:54:17;5.30;;;1.40;;
70547;SDS011;58099;43.406;3.698;2023-04-12T03:56:43;6.57;;;1.80;;
70547;SDS011;58099;43.406;3.698;2023-04-12T03:59:08;4.90;;;1.40;;
70547;SDS011;58099;43.406;3.698;2023-04-12T04:01:34;4.60;;;1.10;;
70547;SDS011;58099;43.406;3.698;2023-04-12T04:04:00;6.07;;;1.30;;
70547;SDS011;58099;43.406;3.698;2023-04-12T04:06:26;6.93;;;1.50;;
70547;SDS011;58099;43.406;3.698;2023-04-12T04:08:53;5.88;;;1.30;;
70547;SDS011;58099;43.406;3.698;2023-04-12T04:11:21;6.07;;;1.42;;
70547;SDS011;58099;43.406;3.698;2023-04-12T04:13:46;8.27;;;1.47;;
70547;SDS011;58099;43.406;3.698;2023-04-12T04:16:12;6.43;;;1.27;;
70547;SDS011;58099;43.406;3.698;2023-04-12T04:18:38;5.67;;;1.80;;
70547;SDS011;58099;43.406;3.698;2023-04-12T04:21:04;6.75;;;1.27;;
70547;SDS011;58099;43.406;3.698;2023-04-12T04:23:31;5.60;;;1.30;;
70547;SDS011;58099;43.406;3.698;2023-04-12T04:26:02;5.35;;;1.10;;
70547;SDS011;58099;43.406;3.698;2023-04-12T04:28:38;6.35;;;1.60;;
70547;SDS011;58099;43.406;3.698;2023-04-12T04:31:09;10.05;;;2.35;;
70547;SDS011;58099;43.406;3.698;2023-04-12T04:33:38;9.85;;;2.65;;
70547;SDS011;58099;43.406;3.698;2023-04-12T04:36:04;7.50;;;1.60;;
70547;SDS011;58099;43.406;3.698;2023-04-12T04:38:33;6.18;;;1.40;;
70547;SDS011;58099;43.406;3.698;2023-04-12T04:41:00;6.95;;;1.30;;
70547;SDS011;58099;43.406;3.698;2023-04-12T04:43:26;5.47;;;1.50;;
70547;SDS011;58099;43.406;3.698;2023-04-12T04:45:56;5.95;;;1.30;;
70547;SDS011;58099;43.406;3.698;2023-04-12T04:48:22;7.57;;;1.20;;
70547;SDS011;58099;43.406;3.698;2023-04-12T04:50:48;4.90;;;1.33;;
70547;SDS011;58099;43.406;3.698;2023-04-12T04:53:16;4.82;;;1.02;;
70547;SDS011;58099;43.406;3.698;2023-04-12T04:55:42;5.70;;;1.30;;
70547;SDS011;58099;43.406;3.698;2023-04-12T04:58:08;4.13;;;0.90;;
70547;SDS011;58099;43.406;3.698;2023-04-12T05:00:34;6.30;;;1.38;;
70547;SDS011;58099;43.406;3.698;2023-04-12T05:03:00;5.80;;;1.30;;
70547;SDS011;58099;43.406;3.698;2023-04-12T05:05:29;6.35;;;1.00;;
70547;SDS011;58099;43.406;3.698;2023-04-12T05:07:55;4.53;;;1.10;;
70547;SDS011;58099;43.406;3.698;2023-04-12T05:10:22;5.43;;;1.42;;
70547;SDS011;58099;43.406;3.698;2023-04-12T05:12:48;4.83;;;1.13;;
70547;SDS011;58099;43.406;3.698;2023-04-12T05:15:13;6.60;;;1.50;;
70547;SDS011;58099;43.406;3.698;2023-04-12T05:17:39;4.93;;;1.60;;
70547;SDS011;58099;43.406;3.698;2023-04-12T05:20:05;4.90;;;1.50;;
70547;SDS011;58099;43.406;3.698;2023-04-12T05:22:31;5.57;;;1.40;;
70547;SDS011;58099;43.406;3.698;2023-04-12T05:24:57;6.75;;;1.63;;
70547;SDS011;58099;43.406;3.698;2023-04-12T05:27:23;4.60;;;1.43;;
70547;SDS011;58099;43.406;3.698;2023-04-12T05:29:51;6.15;;;1.65;;
70547;SDS011;58099;43.406;3.698;2023-04-12T05:32:18;5.35;;;1.58;;
70547;SDS011;58099;43.406;3.698;2023-04-12T05:34:44;5.45;;;1.75;;
70547;SDS011;58099;43.406;3.698;2023-04-12T05:37:09;4.93;;;1.60;;
70547;SDS011;58099;43.406;3.698;2023-04-12T05:39:35;5.72;;;1.67;;
70547;SDS011;58099;43.406;3.698;2023-04-12T05:42:01;6.60;;;1.90;;
70547;SDS011;58099;43.406;3.698;2023-04-12T05:44:27;6.35;;;1.50;;
70547;SDS011;58099;43.406;3.698;2023-04-12T05:46:52;6.97;;;2.10;;
70547;SDS011;58099;43.406;3.698;2023-04-12T05:49:18;6.30;;;1.50;;
70547;SDS011;58099;43.406;3.698;2023-04-12T05:51:44;5.33;;;1.50;;
70547;SDS011;58099;43.406;3.698;2023-04-12T05:54:09;5.43;;;1.20;;
70547;SDS011;58099;43.406;3.698;2023-04-12T05:56:35;6.00;;;1.13;;
70547;SDS011;58099;43.406;3.698;2023-04-12T05:59:01;4.88;;;1.40;;
70547;SDS011;58099;43.406;3.698;2023-04-12T06:01:28;7.47;;;1.35;;
70547;SDS011;58099;43.406;3.698;2023-04-12T06:03:58;5.63;;;1.47;;
70547;SDS011;58099;43.406;3.698;2023-04-12T06:06:26;5.25;;;1.55;;
70547;SDS011;58099;43.406;3.698;2023-04-12T06:08:54;6.38;;;1.35;;
70547;SDS011;58099;43.406;3.698;2023-04-12T06:11:26;8.15;;;1.65;;
70547;SDS011;58099;43.406;3.698;2023-04-12T06:13:52;7.23;;;1.80;;
70547;SDS011;58099;43.406;3.698;2023-04-12T06:16:18;6.57;;;2.10;;
70547;SDS011;58099;43.406;3.698;2023-04-12T06:18:44;7.80;;;1.90;;
70547;SDS011;58099;43.406;3.698;2023-04-12T06:21:09;10.32;;;2.15;;
70547;SDS011;58099;43.406;3.698;2023-04-12T06:23:35;6.60;;;2.03;;
70547;SDS011;58099;43.406;3.698;2023-04-12T06:26:01;7.75;;;1.85;;
70547;SDS011;58099;43.406;3.698;2023-04-12T06:28:27;16.15;;;3.40;;
70547;SDS011;58099;43.406;3.698;2023-04-12T06:30:53;9.53;;;2.80;;
70547;SDS011;58099;43.406;3.698;2023-04-12T06:33:19;13.35;;;3.15;;
70547;SDS011;58099;43.406;3.698;2023-04-12T06:35:47;16.83;;;4.15;;
70547;SDS011;58099;43.406;3.698;2023-04-12T06:38:13;21.17;;;3.90;;
70547;SDS011;58099;43.406;3.698;2023-04-12T06:40:38;14.27;;;3.10;;
70547;SDS011;58099;43.406;3.698;2023-04-12T06:43:04;7.20;;;2.30;;
70547;SDS011;58099;43.406;3.698;2023-04-12T06:45:30;9.20;;;2.40;;
70547;SDS011;58099;43.406;3.698;2023-04-12T06:47:56;7.43;;;2.20;;
70547;SDS011;58099;43.406;3.698;2023-04-12T06:50:21;9.07;;;2.50;;
70547;SDS011;58099;43.406;3.698;2023-04-12T06:52:47;8.23;;;2.13;;
70547;SDS011;58099;43.406;3.698;2023-04-12T06:55:13;7.63;;;1.50;;
70547;SDS011;58099;43.406;3.698;2023-04-12T06:57:43;12.18;;;5.03;;
70547;SDS011;58099;43.406;3.698;2023-04-12T07:00:09;9.25;;;3.53;;
70547;SDS011;58099;43.406;3.698;2023-04-12T07:02:35;5.97;;;2.03;;
70547;SDS011;58099;43.406;3.698;2023-04-12T07:05:02;7.53;;;2.42;;
70547;SDS011;58099;43.406;3.698;2023-04-12T07:07:28;9.60;;;3.50;;
70547;SDS011;58099;43.406;3.698;2023-04-12T07:09:54;7.93;;;2.08;;
70547;SDS011;58099;43.406;3.698;2023-04-12T07:12:20;6.88;;;1.70;;
70547;SDS011;58099;43.406;3.698;2023-04-12T07:14:46;5.93;;;1.88;;
70547;SDS011;58099;43.406;3.698;2023-04-12T07:17:12;14.43;;;3.03;;
70547;SDS011;58099;43.406;3.698;2023-04-12T07:19:38;10.40;;;2.72;;
70547;SDS011;58099;43.406;3.698;2023-04-12T07:22:06;12.23;;;2.73;;
70547;SDS011;58099;43.406;3.698;2023-04-12T07:24:34;14.45;;;2.97;;
70547;SDS011;58099;43.406;3.698;2023-04-12T07:27:00;22.73;;;3.85;;
70547;SDS011;58099;43.406;3.698;2023-04-12T07:29:26;20.07;;;3.67;;
70547;SDS011;58099;43.406;3.698;2023-04-12T07:31:51;12.93;;;2.72;;
70547;SDS011;58099;43.406;3.698;2023-04-12T07:34:17;14.30;;;3.30;;
70547;SDS011;58099;43.406;3.698;2023-04-12T07:36:43;12.37;;;3.87;;
70547;SDS011;58099;43.406;3.698;2023-04-12T07:39:09;15.43;;;6.05;;
70547;SDS011;58099;43.406;3.698;2023-04-12T07:41:38;18.42;;;6.45;;
70547;SDS011;58099;43.406;3.698;2023-04-12T07:44:10;15.27;;;5.80;;
70547;SDS011;58099;43.406;3.698;2023-04-12T07:46:36;15.05;;;5.90;;
70547;SDS011;58099;43.406;3.698;2023-04-12T07:49:02;13.45;;;5.55;;
70547;SDS011;58099;43.406;3.698;2023-04-12T07:51:28;15.07;;;5.10;;
70547;SDS011;58099;43.406;3.698;2023-04-12T07:53:55;13.15;;;5.53;;
70547;SDS011;58099;43.406;3.698;2023-04-12T07:56:20;13.77;;;5.45;;
70547;SDS011;58099;43.406;3.698;2023-04-12T07:58:46;9.43;;;5.20;;
70547;SDS011;58099;43.406;3.698;2023-04-12T08:01:13;11.05;;;4.88;;
70547;SDS011;58099;43.406;3.698;2023-04-12T08:03:39;10.15;;;4.28;;
70547;SDS011;58099;43.406;3.698;2023-04-12T08:06:05;11.47;;;4.03;;
70547;SDS011;58099;43.406;3.698;2023-04-12T08:08:31;11.77;;;4.40;;
70547;SDS011;58099;43.406;3.698;2023-04-12T08:10:57;12.13;;;4.90;;
70547;SDS011;58099;43.406;3.698;2023-04-12T08:13:24;8.38;;;4.70;;
70547;SDS011;58099;43.406;3.698;2023-04-12T08:15:50;11.32;;;4.90;;
70547;SDS011;58099;43.406;3.698;2023-04-12T08:18:16;12.57;;;4.93;;
70547;SDS011;58099;43.406;3.698;2023-04-12T08:20:42;11.40;;;4.63;;
70547;SDS011;58099;43.406;3.698;2023-04-12T08:23:08;10.60;;;4.82;;
70547;SDS011;58099;43.406;3.698;2023-04-12T08:25:35;9.15;;;4.20;;
70547;SDS011;58099;43.406;3.698;2023-04-12T08:28:00;9.70;;;4.07;;
70547;SDS011;58099;43.406;3.698;2023-04-12T08:30:27;11.45;;;4.35;;
70547;SDS011;58099;43.406;3.698;2023-04-12T08:32:53;10.95;;;4.93;;
70547;SDS011;58099;43.406;3.698;2023-04-12T08:35:19;12.87;;;5.00;;
70547;SDS011;58099;43.406;3.698;2023-04-12T08:37:46;13.90;;;6.15;;
70547;SDS011;58099;43.406;3.698;2023-04-12T08:40:12;13.85;;;5.43;;
70547;SDS011;58099;43.406;3.698;2023-04-12T08:42:37;13.17;;;4.60;;
70547;SDS011;58099;43.406;3.698;2023-04-12T08:45:07;13.23;;;5.32;;
70547;SDS011;58099;43.406;3.698;2023-04-12T08:47:37;12.75;;;5.28;;
70547;SDS011;58099;43.406;3.698;2023-04-12T08:50:05;12.87;;;5.20;;
70547;SDS011;58099;43.406;3.698;2023-04-12T08:52:35;12.25;;;4.78;;
70547;SDS011;58099;43.406;3.698;2023-04-12T08:55:05;12.65;;;5.80;;
70547;SDS011;58099;43.406;3.698;2023-04-12T08:57:31;16.08;;;5.43;;
70547;SDS011;58099;43.406;3.698;2023-04-12T09:00:04;14.82;;;5.78;;
70547;SDS011;58099;43.406;3.698;2023-04-12T09:02:33;18.73;;;5.47;;
70547;SDS011;58099;43.406;3.698;2023-04-12T09:05:00;18.73;;;6.13;;
70547;SDS011;58099;43.406;3.698;2023-04-12T09:07:26;11.80;;;5.75;;
70547;SDS011;58099;43.406;3.698;2023-04-12T09:09:54;10.68;;;5.03;;
70547;SDS011;58099;43.406;3.698;2023-04-12T09:12:21;14.70;;;5.57;;
70547;SDS011;58099;43.406;3.698;2023-04-12T09:14:48;12.50;;;5.50;;
70547;SDS011;58099;43.406;3.698;2023-04-12T09:17:37;11.02;;;5.05;;
70547;SDS011;58099;43.406;3.698;2023-04-12T09:22:42;11.52;;;5.25;;
70547;SDS011;58099;43.406;3.698;2023-04-12T09:25:10;12.53;;;5.20;;
70547;SDS011;58099;43.406;3.698;2023-04-12T09:27:49;10.95;;;5.45;;
70547;SDS011;58099;43.406;3.698;2023-04-12T09:30:17;12.75;;;4.65;;
70547;SDS011;58099;43.406;3.698;2023-04-12T09:32:43;10.45;;;5.25;;
70547;SDS011;58099;43.406;3.698;2023-04-12T09:35:10;8.98;;;5.07;;
70547;SDS011;58099;43.406;3.698;2023-04-12T09:37:37;11.03;;;4.53;;
70547;SDS011;58099;43.406;3.698;2023-04-12T09:40:07;13.10;;;5.78;;
70547;SDS011;58099;43.406;3.698;2023-04-12T09:42:34;12.13;;;5.70;;
70547;SDS011;58099;43.406;3.698;2023-04-12T09:45:19;12.85;;;5.47;;
70547;SDS011;58099;43.406;3.698;2023-04-12T09:47:46;11.75;;;5.97;;
70547;SDS011;58099;43.406;3.698;2023-04-12T09:50:20;11.43;;;5.90;;
70547;SDS011;58099;43.406;3.698;2023-04-12T09:52:53;9.73;;;5.00;;
70547;SDS011;58099;43.406;3.698;2023-04-12T09:55:23;10.85;;;4.85;;
70547;SDS011;58099;43.406;3.698;2023-04-12T09:57:52;10.45;;;4.70;;
70547;SDS011;58099;43.406;3.698;2023-04-12T10:00:20;10.50;;;5.25;;
70547;SDS011;58099;43.406;3.698;2023-04-12T10:02:48;11.57;;;5.00;;
70547;SDS011;58099;43.406;3.698;2023-04-12T10:05:21;7.95;;;4.00;;
70547;SDS011;58099;43.406;3.698;2023-04-12T10:07:51;11.73;;;4.68;;
70547;SDS011;58099;43.406;3.698;2023-04-12T10:10:17;9.23;;;3.65;;
70547;SDS011;58099;43.406;3.698;2023-04-12T10:12:44;7.97;;;3.88;;
70547;SDS011;58099;43.406;3.698;2023-04-12T10:15:11;9.70;;;3.47;;
70547;SDS011;58099;43.406;3.698;2023-04-12T10:17:44;6.45;;;3.30;;
70547;SDS011;58099;43.406;3.698;2023-04-12T10:20:17;8.30;;;4.57;;
70547;SDS011;58099;43.406;3.698;2023-04-12T10:22:44;9.93;;;4.25;;
70547;SDS011;58099;43.406;3.698;2023-04-12T10:25:19;8.25;;;3.95;;
70547;SDS011;58099;43.406;3.698;2023-04-12T10:27:46;9.77;;;4.50;;
70547;SDS011;58099;43.406;3.698;2023-04-12T10:30:27;7.50;;;3.80;;
70547;SDS011;58099;43.406;3.698;2023-04-12T10:35:29;7.75;;;3.28;;
70547;SDS011;58099;43.406;3.698;2023-04-12T10:38:17;7.75;;;3.70;;
70547;SDS011;58099;43.406;3.698;2023-04-12T10:43:31;8.57;;;3.33;;
70547;SDS011;58099;43.406;3.698;2023-04-12T10:45:57;7.10;;;2.85;;
70547;SDS011;58099;43.406;3.698;2023-04-12T10:48:32;7.57;;;2.90;;
70547;SDS011;58099;43.406;3.698;2023-04-12T10:51:12;9.30;;;3.30;;
70547;SDS011;58099;43.406;3.698;2023-04-12T10:53:45;6.85;;;3.13;;
70547;SDS011;58099;43.406;3.698;2023-04-12T10:58:56;7.13;;;3.05;;
70547;SDS011;58099;43.406;3.698;2023-04-12T11:01:23;12.32;;;4.03;;
70547;SDS011;58099;43.406;3.698;2023-04-12T11:09:06;7.87;;;3.50;;
70547;SDS011;58099;43.406;3.698;2023-04-12T11:11:40;7.55;;;2.70;;
70547;SDS011;58099;43.406;3.698;2023-04-12T11:14:08;8.40;;;3.13;;
70547;SDS011;58099;43.406;3.698;2023-04-12T11:17:22;6.33;;;3.07;;
70547;SDS011;58099;43.406;3.698;2023-04-12T11:19:57;6.43;;;3.25;;
70547;SDS011;58099;43.406;3.698;2023-04-12T11:22:28;7.68;;;3.20;;
70547;SDS011;58099;43.406;3.698;2023-04-12T11:24:59;7.90;;;3.45;;
70547;SDS011;58099;43.406;3.698;2023-04-12T11:27:26;7.78;;;3.88;;
70547;SDS011;58099;43.406;3.698;2023-04-12T11:29:53;9.50;;;3.90;;
70547;SDS011;58099;43.406;3.698;2023-04-12T11:32:22;6.05;;;3.33;;
70547;SDS011;58099;43.406;3.698;2023-04-12T11:34:50;7.57;;;3.53;;
70547;SDS011;58099;43.406;3.698;2023-04-12T11:37:17;9.32;;;4.05;;
70547;SDS011;58099;43.406;3.698;2023-04-12T11:39:44;7.17;;;3.43;;
70547;SDS011;58099;43.406;3.698;2023-04-12T11:42:12;8.55;;;3.03;;
70547;SDS011;58099;43.406;3.698;2023-04-12T11:44:45;7.90;;;3.05;;
70547;SDS011;58099;43.406;3.698;2023-04-12T11:47:12;7.80;;;2.38;;
70547;SDS011;58099;43.406;3.698;2023-04-12T11:49:44;6.55;;;2.80;;
70547;SDS011;58099;43.406;3.698;2023-04-12T11:52:11;6.90;;;2.73;;
70547;SDS011;58099;43.406;3.698;2023-04-12T11:54:51;7.53;;;2.92;;
70547;SDS011;58099;43.406;3.698;2023-04-12T11:57:20;6.47;;;2.15;;
70547;SDS011;58099;43.406;3.698;2023-04-12T11:59:46;7.68;;;3.10;;
70547;SDS011;58099;43.406;3.698;2023-04-12T12:02:13;7.50;;;2.90;;
70547;SDS011;58099;43.406;3.698;2023-04-12T12:04:44;8.30;;;3.00;;
70547;SDS011;58099;43.406;3.698;2023-04-12T12:07:12;5.43;;;2.17;;
70547;SDS011;58099;43.406;3.698;2023-04-12T12:09:43;7.20;;;2.42;;
70547;SDS011;58099;43.406;3.698;2023-04-12T12:12:10;7.43;;;2.42;;
70547;SDS011;58099;43.406;3.698;2023-04-12T12:14:37;8.23;;;2.53;;
70547;SDS011;58099;43.406;3.698;2023-04-12T12:17:10;6.85;;;2.28;;
70547;SDS011;58099;43.406;3.698;2023-04-12T12:19:38;5.95;;;2.22;;
70547;SDS011;58099;43.406;3.698;2023-04-12T12:22:15;5.47;;;2.03;;
70547;SDS011;58099;43.406;3.698;2023-04-12T12:24:46;7.13;;;2.85;;
70547;SDS011;58099;43.406;3.698;2023-04-12T12:27:22;6.53;;;1.90;;
70547;SDS011;58099;43.406;3.698;2023-04-12T12:29:53;5.72;;;2.00;;
70547;SDS011;58099;43.406;3.698;2023-04-12T12:32:19;5.68;;;2.20;;
70547;SDS011;58099;43.406;3.698;2023-04-12T12:34:54;7.18;;;2.20;;
70547;SDS011;58099;43.406;3.698;2023-04-12T12:37:24;5.03;;;1.63;;
70547;SDS011;58099;43.406;3.698;2023-04-12T12:40:04;5.50;;;1.90;;
70547;SDS011;58099;43.406;3.698;2023-04-12T12:42:32;5.18;;;2.03;;
70547;SDS011;58099;43.406;3.698;2023-04-12T12:44:58;5.00;;;2.33;;
70547;SDS011;58099;43.406;3.698;2023-04-12T12:47:24;5.20;;;1.90;;
70547;SDS011;58099;43.406;3.698;2023-04-12T12:49:50;6.13;;;2.10;;
70547;SDS011;58099;43.406;3.698;2023-04-12T12:52:15;4.87;;;1.90;;
70547;SDS011;58099;43.406;3.698;2023-04-12T12:54:41;5.63;;;1.50;;
70547;SDS011;58099;43.406;3.698;2023-04-12T12:57:07;7.57;;;2.00;;
70547;SDS011;58099;43.406;3.698;2023-04-12T12:59:33;5.80;;;1.85;;
70547;SDS011;58099;43.406;3.698;2023-04-12T13:01:58;6.97;;;2.93;;
70547;SDS011;58099;43.406;3.698;2023-04-12T13:04:24;6.43;;;2.13;;
70547;SDS011;58099;43.406;3.698;2023-04-12T13:06:50;6.22;;;2.03;;
70547;SDS011;58099;43.406;3.698;2023-04-12T13:09:16;6.50;;;1.53;;
70547;SDS011;58099;43.406;3.698;2023-04-12T13:11:42;6.22;;;2.03;;
70547;SDS011;58099;43.406;3.698;2023-04-12T13:14:08;5.85;;;2.40;;
70547;SDS011;58099;43.406;3.698;2023-04-12T13:16:33;4.63;;;1.83;;
70547;SDS011;58099;43.406;3.698;2023-04-12T13:19:00;5.20;;;1.63;;
70547;SDS011;58099;43.406;3.698;2023-04-12T13:21:25;4.37;;;1.40;;
70547;SDS011;58099;43.406;3.698;2023-04-12T13:23:51;6.05;;;2.00;;
70547;SDS011;58099;43.406;3.698;2023-04-12T13:26:17;6.37;;;2.23;;
70547;SDS011;58099;43.406;3.698;2023-04-12T13:28:42;6.35;;;2.88;;
70547;SDS011;58099;43.406;3.698;2023-04-12T13:31:08;8.70;;;2.13;;
70547;SDS011;58099;43.406;3.698;2023-04-12T13:33:34;5.80;;;1.70;;
70547;SDS011;58099;43.406;3.698;2023-04-12T13:36:00;8.20;;;2.47;;
70547;SDS011;58099;43.406;3.698;2023-04-12T13:38:26;7.18;;;2.42;;
70547;SDS011;58099;43.406;3.698;2023-04-12T13:40:51;6.00;;;1.70;;
70547;SDS011;58099;43.406;3.698;2023-04-12T13:43:17;5.50;;;1.60;;
70547;SDS011;58099;43.406;3.698;2023-04-12T13:45:43;4.85;;;1.80;;
70547;SDS011;58099;43.406;3.698;2023-04-12T13:48:09;5.80;;;1.43;;
70547;SDS011;58099;43.406;3.698;2023-04-12T13:50:34;4.93;;;1.60;;
70547;SDS011;58099;43.406;3.698;2023-04-12T13:53:00;6.32;;;1.40;;
70547;SDS011;58099;43.406;3.698;2023-04-12T13:55:26;5.03;;;1.40;;
70547;SDS011;58099;43.406;3.698;2023-04-12T13:57:52;6.33;;;1.30;;
70547;SDS011;58099;43.406;3.698;2023-04-12T14:00:17;4.80;;;1.42;;
70547;SDS011;58099;43.406;3.698;2023-04-12T14:02:44;5.25;;;1.67;;
70547;SDS011;58099;43.406;3.698;2023-04-12T14:05:09;8.50;;;1.92;;
70547;SDS011;58099;43.406;3.698;2023-04-12T14:07:35;6.80;;;1.75;;
70547;SDS011;58099;43.406;3.698;2023-04-12T14:10:01;5.13;;;1.70;;
70547;SDS011;58099;43.406;3.698;2023-04-12T14:12:27;5.75;;;2.20;;
70547;SDS011;58099;43.406;3.698;2023-04-12T14:14:53;6.77;;;2.00;;
70547;SDS011;58099;43.406;3.698;2023-04-12T14:17:18;5.40;;;1.97;;
70547;SDS011;58099;43.406;3.698;2023-04-12T14:19:44;7.22;;;1.85;;
70547;SDS011;58099;43.406;3.698;2023-04-12T14:22:10;5.73;;;2.20;;
70547;SDS011;58099;43.406;3.698;2023-04-12T14:24:35;6.97;;;2.05;;
70547;SDS011;58099;43.406;3.698;2023-04-12T14:27:01;6.57;;;2.00;;
70547;SDS011;58099;43.406;3.698;2023-04-12T14:29:28;5.63;;;1.77;;
70547;SDS011;58099;43.406;3.698;2023-04-12T14:31:54;7.55;;;2.40;;
70547;SDS011;58099;43.406;3.698;2023-04-12T14:34:19;8.20;;;2.65;;
70547;SDS011;58099;43.406;3.698;2023-04-12T14:36:45;7.10;;;2.43;;
70547;SDS011;58099;43.406;3.698;2023-04-12T14:39:11;6.88;;;1.90;;
70547;SDS011;58099;43.406;3.698;2023-04-12T14:41:36;6.97;;;1.80;;
70547;SDS011;58099;43.406;3.698;2023-04-12T14:44:02;6.43;;;1.67;;
70547;SDS011;58099;43.406;3.698;2023-04-12T14:46:30;6.03;;;2.00;;
70547;SDS011;58099;43.406;3.698;2023-04-12T14:48:55;8.47;;;2.40;;
70547;SDS011;58099;43.406;3.698;2023-04-12T14:51:23;6.75;;;2.08;;
70547;SDS011;58099;43.406;3.698;2023-04-12T14:53:49;8.25;;;1.98;;
70547;SDS011;58099;43.406;3.698;2023-04-12T14:56:18;6.68;;;2.08;;
70547;SDS011;58099;43.406;3.698;2023-04-12T14:58:45;5.03;;;1.70;;
70547;SDS011;58099;43.406;3.698;2023-04-12T15:01:11;5.72;;;2.40;;
70547;SDS011;58099;43.406;3.698;2023-04-12T15:03:37;7.88;;;2.22;;
70547;SDS011;58099;43.406;3.698;2023-04-12T15:06:06;8.85;;;2.25;;
70547;SDS011;58099;43.406;3.698;2023-04-12T15:08:32;6.07;;;1.90;;
70547;SDS011;58099;43.406;3.698;2023-04-12T15:11:05;8.20;;;2.63;;
70547;SDS011;58099;43.406;3.698;2023-04-12T15:13:35;6.47;;;2.22;;
70547;SDS011;58099;43.406;3.698;2023-04-12T15:16:04;6.43;;;2.33;;